createdAt,value
2018-07-07T15:35:59.283Z,44.00
2018-07-07T15:37:00.974Z,44.00
2018-07-07T15:37:59.181Z,44.00
2018-07-07T15:39:00.974Z,44.00
2018-07-07T15:39:48.483Z,44.00
2018-07-07T15:40:50.288Z,44.00
2018-07-07T15:41:50.270Z,44.00
2018-07-07T15:42:50.276Z,44.00
2018-07-07T15:43:49.780Z,48.00
2018-07-07T15:44:49.771Z,52.00
2018-07-07T15:45:49.814Z,48.00
2018-07-07T15:46:49.772Z,44.00
2018-07-07T15:47:49.771Z,44.00
2018-07-07T15:48:49.772Z,44.00
2018-07-07T15:49:49.774Z,48.00
2018-07-07T15:50:49.789Z,44.00
2018-07-07T15:51:49.273Z,44.00
2018-07-07T15:52:49.278Z,44.00
2018-07-07T15:53:49.275Z,40.00
2018-07-07T15:54:49.298Z,20.00
2018-07-07T15:55:49.330Z,16.00
2018-07-07T15:56:49.286Z,24.00
2018-07-07T15:57:49.281Z,24.00
2018-07-07T15:58:48.774Z,24.00
2018-07-07T15:59:48.777Z,16.00
2018-07-07T16:00:48.789Z,16.00
2018-07-07T16:01:48.776Z,16.00
2018-07-07T16:02:48.795Z,20.00
2018-07-07T16:03:48.775Z,16.00
2018-07-07T16:04:48.782Z,20.00
2018-07-07T16:05:46.743Z,12.00
2018-07-07T16:06:48.292Z,20.00
2018-07-07T16:07:48.275Z,8.00
2018-07-07T16:08:48.278Z,24.00
2018-07-07T16:09:52.488Z,16.00
2018-07-07T16:10:58.254Z,28.00
2018-07-07T16:12:00.033Z,24.00
2018-07-07T16:12:58.177Z,16.00
2018-07-07T16:14:00.035Z,16.00
2018-07-07T16:15:00.039Z,20.00
2018-07-07T16:16:00.047Z,16.00
2018-07-07T16:16:58.028Z,12.00
2018-07-07T16:17:59.531Z,12.00
2018-07-07T16:18:59.532Z,16.00
2018-07-07T16:19:59.550Z,36.00
2018-07-07T16:20:59.533Z,28.00
2018-07-07T16:21:59.611Z,32.00
2018-07-07T16:22:59.533Z,32.00
2018-07-07T16:24:00.534Z,32.00
2018-07-07T16:25:00.534Z,32.00
2018-07-07T16:25:59.680Z,28.00
2018-07-07T16:26:59.624Z,8.00
2018-07-07T16:27:57.600Z,28.00
2018-07-07T16:28:59.546Z,32.00
2018-07-07T16:29:59.035Z,32.00
2018-07-07T16:30:59.038Z,32.00
2018-07-07T16:31:59.051Z,32.00
2018-07-07T16:32:59.035Z,32.00
2018-07-07T16:33:59.035Z,28.00
2018-07-07T16:34:59.035Z,28.00
2018-07-07T16:35:59.082Z,28.00
2018-07-07T16:36:59.051Z,28.00
2018-07-07T16:37:59.037Z,32.00
2018-07-07T16:38:59.037Z,32.00
2018-07-07T16:39:59.091Z,32.00
2018-07-07T16:40:58.540Z,28.00
2018-07-07T16:41:58.556Z,32.00
2018-07-07T16:42:58.548Z,28.00
2018-07-07T16:43:58.561Z,28.00
2018-07-07T16:44:58.558Z,32.00
2018-07-07T16:45:58.541Z,28.00
2018-07-07T16:46:58.553Z,28.00
2018-07-07T16:47:58.538Z,28.00
2018-07-07T16:48:58.539Z,28.00
2018-07-07T16:49:58.540Z,28.00
2018-07-07T16:50:58.540Z,28.00
2018-07-07T16:51:58.554Z,28.00
2018-07-07T16:52:58.040Z,28.00
2018-07-07T16:53:58.043Z,28.00
2018-07-07T16:54:58.040Z,28.00
2018-07-07T16:55:58.040Z,28.00
2018-07-07T16:56:58.057Z,24.00
2018-07-07T16:57:58.041Z,24.00
2018-07-07T16:58:58.041Z,28.00
2018-07-07T16:59:58.237Z,28.00
2018-07-07T17:00:58.041Z,24.00
2018-07-07T17:01:58.056Z,24.00
2018-07-07T17:02:58.044Z,28.00
2018-07-07T17:03:58.042Z,24.00
2018-07-07T17:04:58.043Z,24.00
2018-07-07T17:05:58.043Z,28.00
2018-07-07T17:06:56.023Z,24.00
2018-07-07T17:07:57.557Z,24.00
2018-07-07T17:08:57.543Z,24.00
2018-07-07T17:09:57.548Z,24.00
2018-07-07T17:10:57.543Z,20.00
2018-07-07T17:11:57.552Z,20.00
2018-07-07T17:12:57.559Z,24.00
2018-07-07T17:13:57.548Z,24.00
2018-07-07T17:14:57.545Z,20.00
2018-07-07T17:15:57.546Z,24.00
2018-07-07T17:16:57.545Z,24.00
2018-07-07T17:17:57.559Z,20.00
2018-07-07T17:18:57.546Z,20.00
2018-07-07T17:19:57.046Z,24.00
2018-07-07T17:20:57.047Z,20.00
2018-07-07T17:21:57.047Z,20.00
2018-07-07T17:22:57.103Z,20.00
2018-07-07T17:23:57.047Z,20.00
2018-07-07T17:24:58.047Z,20.00
2018-07-07T17:25:57.048Z,96.00
2018-07-07T17:26:57.048Z,96.00
2018-07-07T17:27:57.073Z,96.00
2018-07-07T17:28:58.049Z,100.00
2018-07-07T17:29:57.139Z,100.00
2018-07-07T17:30:57.100Z,100.00
2018-07-07T17:31:57.079Z,100.00
2018-07-07T17:32:57.093Z,104.00
2018-07-07T17:33:57.051Z,100.00
2018-07-07T17:34:55.107Z,100.00
2018-07-07T17:35:57.056Z,100.00
2018-07-07T17:36:57.101Z,92.00
2018-07-07T17:37:56.565Z,92.00
2018-07-07T17:38:56.551Z,88.00
2018-07-07T17:39:56.551Z,88.00
2018-07-07T17:40:56.553Z,88.00
2018-07-07T17:41:56.551Z,88.00
2018-07-07T17:42:56.566Z,84.00
2018-07-07T17:43:56.552Z,88.00
2018-07-07T17:44:56.551Z,88.00
2018-07-07T17:45:56.559Z,88.00
2018-07-07T17:46:56.552Z,88.00
2018-07-07T17:47:56.556Z,92.00
2018-07-07T17:48:56.569Z,92.00
2018-07-07T17:50:02.787Z,100.00
2018-07-07T17:51:04.566Z,100.00
2018-07-07T17:52:04.563Z,88.00
2018-07-07T17:53:04.577Z,88.00
2018-07-07T17:54:04.563Z,84.00
2018-07-07T17:55:05.564Z,84.00
2018-07-07T17:56:04.103Z,80.00
2018-07-07T17:57:04.066Z,76.00
2018-07-07T17:58:04.065Z,72.00
2018-07-07T17:59:04.079Z,72.00
2018-07-07T18:00:04.077Z,68.00
2018-07-07T18:01:04.083Z,68.00
2018-07-07T18:02:04.065Z,68.00
2018-07-07T18:03:02.264Z,68.00
2018-07-07T18:04:04.184Z,68.00
2018-07-07T18:05:04.077Z,68.00
2018-07-07T18:06:04.066Z,76.00
2018-07-07T18:07:04.140Z,76.00
2018-07-07T18:08:03.567Z,76.00
2018-07-07T18:09:03.581Z,76.00
2018-07-07T18:10:03.568Z,72.00
2018-07-07T18:11:04.568Z,72.00
2018-07-07T18:12:03.568Z,72.00
2018-07-07T18:13:03.569Z,68.00
2018-07-07T18:14:03.585Z,68.00
2018-07-07T18:15:03.569Z,68.00
2018-07-07T18:16:03.571Z,64.00
2018-07-07T18:17:03.572Z,60.00
2018-07-07T18:18:03.569Z,56.00
2018-07-07T18:19:03.585Z,56.00
2018-07-07T18:20:04.577Z,52.00
2018-07-07T18:21:03.569Z,52.00
2018-07-07T18:22:03.071Z,64.00
2018-07-07T18:23:03.070Z,92.00
2018-07-07T19:12:44.384Z,24.00
2018-07-07T19:13:46.087Z,12.00
2018-07-07T19:14:46.105Z,12.00
2018-07-07T19:15:46.088Z,32.00
2018-07-07T19:16:46.089Z,32.00
2018-07-07T19:17:46.088Z,32.00
2018-07-07T19:18:46.089Z,32.00
2018-07-07T19:19:46.104Z,32.00
2018-07-07T19:20:46.088Z,8.00
2018-07-07T19:21:46.089Z,36.00
2018-07-07T19:22:46.091Z,32.00
2018-07-07T19:23:45.100Z,36.00
2018-07-07T19:24:46.105Z,32.00
2018-07-07T19:25:46.090Z,32.00
2018-07-07T19:26:46.090Z,28.00
2018-07-07T19:27:46.093Z,28.00
2018-07-07T19:28:46.106Z,24.00
2018-07-07T19:29:46.090Z,28.00
2018-07-07T19:30:46.106Z,24.00
2018-07-07T19:31:46.091Z,20.00
2018-07-07T19:32:46.091Z,24.00
2018-07-07T19:33:46.091Z,20.00
2018-07-07T19:34:46.092Z,20.00
2018-07-07T19:35:46.110Z,20.00
2018-07-07T19:36:46.094Z,20.00
2018-07-07T19:37:46.092Z,16.00
2018-07-07T19:38:46.592Z,16.00
2018-07-07T19:39:46.593Z,16.00
2018-07-07T19:40:45.700Z,12.00
2018-07-07T19:41:45.863Z,12.00
2018-07-07T19:42:45.608Z,12.00
2018-07-07T19:43:45.593Z,12.00
2018-07-07T19:44:45.593Z,12.00
2018-07-07T19:45:45.607Z,12.00
2018-07-07T19:46:45.611Z,12.00
2018-07-07T19:47:45.594Z,8.00
2018-07-07T19:48:45.594Z,4.00
2018-07-07T19:49:45.604Z,4.00
2018-07-07T19:50:45.609Z,4.00
2018-07-07T19:51:46.632Z,4.00
2018-07-07T19:52:45.100Z,0.00
2018-07-07T19:53:45.713Z,0.00
2018-07-07T19:54:45.596Z,0.00
2018-07-07T19:55:45.611Z,0.00
2018-07-07T19:56:45.600Z,0.00
2018-07-07T19:57:45.596Z,0.00
2018-07-07T19:58:45.596Z,0.00
2018-07-07T19:59:45.596Z,0.00
2018-07-07T20:00:45.616Z,0.00
2018-07-07T20:01:45.597Z,0.00
2018-07-07T20:02:45.606Z,0.00
2018-07-07T20:03:45.597Z,0.00
2018-07-07T20:04:45.598Z,0.00
2018-07-07T20:05:45.615Z,0.00
2018-07-07T20:06:45.598Z,0.00
2018-07-07T20:07:45.609Z,0.00
2018-07-07T20:08:45.598Z,0.00
2018-07-07T20:09:45.599Z,0.00
2018-07-07T20:10:45.616Z,0.00
2018-07-07T20:11:45.599Z,0.00
2018-07-07T20:12:45.599Z,0.00
2018-07-07T20:13:45.599Z,0.00
2018-07-07T20:14:45.600Z,0.00
2018-07-07T20:15:45.614Z,0.00
2018-07-07T20:16:45.600Z,0.00
2018-07-07T20:17:45.600Z,0.00
2018-07-07T20:18:45.674Z,0.00
2018-07-07T20:19:45.604Z,0.00
2018-07-07T20:20:43.653Z,0.00
2018-07-07T20:21:45.601Z,0.00
2018-07-07T20:22:45.603Z,0.00
2018-07-07T20:23:45.103Z,0.00
2018-07-07T20:24:45.105Z,0.00
2018-07-07T20:25:45.119Z,0.00
2018-07-07T20:26:45.103Z,0.00
2018-07-07T20:27:45.103Z,0.00
2018-07-07T20:28:45.103Z,0.00
2018-07-07T20:29:45.105Z,0.00
2018-07-07T20:30:45.117Z,0.00
2018-07-07T20:31:43.513Z,0.00
2018-07-07T20:32:45.104Z,0.00
2018-07-07T20:33:45.104Z,0.00
2018-07-07T20:34:45.104Z,0.00
2018-07-07T20:35:45.105Z,0.00
2018-07-07T20:36:45.119Z,0.00
2018-07-07T20:37:45.105Z,0.00
2018-07-07T20:38:45.105Z,0.00
2018-07-07T20:39:45.108Z,0.00
2018-07-07T20:40:45.107Z,0.00
2018-07-07T20:41:45.121Z,0.00
2018-07-07T20:42:43.392Z,0.00
2018-07-07T20:43:45.106Z,0.00
2018-07-07T20:44:45.106Z,0.00
2018-07-07T20:45:45.107Z,0.00
2018-07-07T20:46:45.121Z,0.00
2018-07-07T20:47:45.108Z,0.00
2018-07-07T20:48:45.107Z,0.00
2018-07-07T20:49:45.108Z,0.00
2018-07-07T20:50:45.108Z,0.00
2018-07-07T20:51:45.123Z,0.00
2018-07-07T20:52:45.120Z,0.00
2018-07-07T20:53:43.274Z,0.00
2018-07-07T20:54:45.110Z,0.00
2018-07-07T20:55:45.111Z,0.00
2018-07-07T20:56:45.125Z,0.00
2018-07-07T20:57:45.111Z,0.00
2018-07-07T20:58:45.111Z,0.00
2018-07-07T20:59:45.110Z,0.00
2018-07-07T21:00:45.113Z,0.00
2018-07-07T21:01:45.148Z,0.00
2018-07-07T21:02:45.111Z,0.00
2018-07-07T21:03:45.111Z,0.00
2018-07-07T21:04:43.150Z,0.00
2018-07-07T21:05:45.112Z,0.00
2018-07-07T21:06:45.126Z,0.00
2018-07-07T21:07:44.612Z,0.00
2018-07-07T21:08:44.612Z,0.00
2018-07-07T21:09:44.612Z,0.00
2018-07-07T21:10:44.614Z,0.00
2018-07-07T21:11:44.614Z,0.00
2018-07-07T21:12:44.627Z,0.00
2018-07-07T21:13:44.614Z,0.00
2018-07-07T21:14:44.613Z,0.00
2018-07-07T21:15:44.614Z,0.00
2018-07-07T21:16:44.629Z,0.00
2018-07-07T21:17:45.615Z,0.00
2018-07-07T21:18:44.618Z,0.00
2018-07-07T21:19:44.615Z,0.00
2018-07-07T21:20:44.615Z,0.00
2018-07-07T21:21:44.615Z,0.00
2018-07-07T21:22:44.630Z,0.00
2018-07-07T21:23:44.698Z,0.00
2018-07-07T21:24:44.616Z,0.00
2018-07-07T21:25:44.616Z,0.00
2018-07-07T21:26:44.617Z,0.00
2018-07-07T21:27:44.631Z,0.00
2018-07-07T21:28:44.626Z,0.00
2018-07-07T21:29:44.618Z,0.00
2018-07-07T21:30:44.617Z,0.00
2018-07-07T21:31:44.617Z,0.00
2018-07-07T21:32:44.634Z,0.00
2018-07-07T21:33:44.618Z,0.00
2018-07-07T21:34:44.618Z,0.00
2018-07-07T21:35:44.619Z,0.00
2018-07-07T21:36:44.619Z,0.00
2018-07-07T21:37:44.637Z,0.00
2018-07-07T21:38:44.623Z,0.00
2018-07-07T21:39:44.619Z,0.00
2018-07-07T21:40:44.620Z,0.00
2018-07-07T21:41:44.620Z,0.00
2018-07-07T21:42:44.636Z,0.00
2018-07-07T21:43:45.620Z,0.00
2018-07-07T21:44:44.621Z,0.00
2018-07-07T21:45:44.622Z,0.00
2018-07-07T21:46:44.637Z,0.00
2018-07-07T21:47:44.636Z,0.00
2018-07-07T21:48:52.402Z,0.00
2018-07-07T21:49:42.665Z,0.00
2018-07-07T21:50:42.654Z,0.00
2018-07-07T21:51:42.642Z,0.00
2018-07-07T21:52:42.647Z,0.00
2018-07-07T21:53:42.691Z,0.00
2018-07-07T21:54:42.612Z,0.00
2018-07-07T21:55:42.600Z,0.00
2018-07-07T21:56:42.592Z,0.00
2018-07-07T21:57:42.595Z,0.00
2018-07-07T21:58:42.613Z,0.00
2018-07-07T21:59:44.164Z,0.00
2018-07-07T22:00:44.168Z,0.00
2018-07-07T22:01:44.162Z,0.00
2018-07-07T22:02:44.226Z,0.00
2018-07-07T22:03:44.163Z,0.00
2018-07-07T22:04:44.163Z,0.00
2018-07-07T22:05:44.163Z,0.00
2018-07-07T22:06:44.164Z,0.00
2018-07-07T22:07:44.184Z,0.00
2018-07-07T22:08:44.164Z,0.00
2018-07-07T22:09:44.169Z,0.00
2018-07-07T22:10:44.170Z,0.00
2018-07-07T22:11:43.172Z,0.00
2018-07-07T22:12:44.181Z,0.00
2018-07-07T22:13:44.166Z,0.00
2018-07-07T22:14:44.165Z,0.00
2018-07-07T22:15:44.166Z,0.00
2018-07-07T22:16:44.175Z,0.00
2018-07-07T22:17:42.387Z,0.00
2018-07-07T22:18:44.166Z,0.00
2018-07-07T22:19:45.166Z,0.00
2018-07-07T22:20:44.166Z,0.00
2018-07-07T22:21:44.166Z,0.00
2018-07-07T22:22:44.168Z,0.00
2018-07-07T22:23:44.181Z,0.00
2018-07-07T22:24:44.168Z,0.00
2018-07-07T22:25:44.169Z,0.00
2018-07-07T22:26:44.167Z,0.00
2018-07-07T22:27:44.167Z,0.00
2018-07-07T22:28:44.182Z,0.00
2018-07-07T22:29:44.172Z,0.00
2018-07-07T22:30:44.168Z,0.00
2018-07-07T22:31:44.168Z,0.00
2018-07-07T22:32:44.171Z,0.00
2018-07-07T22:33:44.186Z,0.00
2018-07-07T22:34:44.170Z,0.00
2018-07-07T22:35:43.669Z,0.00
2018-07-07T22:36:43.670Z,0.00
2018-07-07T22:37:43.671Z,0.00
2018-07-07T22:38:43.686Z,0.00
2018-07-07T22:39:43.670Z,0.00
2018-07-07T22:40:42.119Z,0.00
2018-07-07T22:41:43.672Z,0.00
2018-07-07T22:42:43.670Z,0.00
2018-07-07T22:43:43.684Z,0.00
2018-07-07T22:44:43.670Z,0.00
2018-07-07T22:45:43.670Z,0.00
2018-07-07T22:46:43.671Z,0.00
2018-07-07T22:47:43.672Z,0.00
2018-07-07T22:48:43.688Z,0.00
2018-07-07T22:49:43.671Z,0.00
2018-07-07T22:50:43.672Z,0.00
2018-07-07T22:51:43.671Z,0.00
2018-07-07T22:52:43.672Z,0.00
2018-07-07T22:53:43.686Z,0.00
2018-07-07T22:54:43.675Z,0.00
2018-07-07T22:55:43.676Z,0.00
2018-07-07T22:56:43.673Z,0.00
2018-07-07T22:57:42.680Z,0.00
2018-07-07T22:58:43.673Z,0.00
2018-07-07T22:59:43.689Z,0.00
2018-07-07T23:00:43.674Z,0.00
2018-07-07T23:01:43.674Z,0.00
2018-07-07T23:02:43.675Z,0.00
2018-07-07T23:03:43.674Z,0.00
2018-07-07T23:04:43.689Z,0.00
2018-07-07T23:05:43.675Z,0.00
2018-07-07T23:06:43.676Z,0.00
2018-07-07T23:07:43.676Z,0.00
2018-07-07T23:08:43.676Z,0.00
2018-07-07T23:09:43.694Z,0.00
2018-07-07T23:10:43.676Z,0.00
2018-07-07T23:11:43.676Z,0.00
2018-07-07T23:12:43.676Z,0.00
2018-07-07T23:13:43.676Z,0.00
2018-07-07T23:14:43.693Z,0.00
2018-07-07T23:15:43.678Z,0.00
2018-07-07T23:16:43.677Z,0.00
2018-07-07T23:17:43.678Z,0.00
2018-07-07T23:18:43.678Z,0.00
2018-07-07T23:19:43.693Z,0.00
2018-07-07T23:20:41.689Z,0.00
2018-07-07T23:21:43.178Z,0.00
2018-07-07T23:22:43.179Z,0.00
2018-07-07T23:23:43.179Z,0.00
2018-07-07T23:24:43.197Z,0.00
2018-07-07T23:25:43.202Z,0.00
2018-07-07T23:26:43.180Z,0.00
2018-07-07T23:27:43.180Z,0.00
2018-07-07T23:28:43.180Z,0.00
2018-07-07T23:29:43.196Z,0.00
2018-07-07T23:30:43.180Z,0.00
2018-07-07T23:31:44.183Z,0.00
2018-07-07T23:32:43.180Z,0.00
2018-07-07T23:33:43.181Z,0.00
2018-07-07T23:34:43.198Z,0.00
2018-07-07T23:35:43.181Z,0.00
2018-07-07T23:36:43.182Z,0.00
2018-07-07T23:37:43.182Z,0.00
2018-07-07T23:38:43.182Z,0.00
2018-07-07T23:39:43.198Z,0.00
2018-07-07T23:40:43.191Z,0.00
2018-07-07T23:41:43.182Z,0.00
2018-07-07T23:42:43.187Z,0.00
2018-07-07T23:43:43.186Z,0.00
2018-07-07T23:44:43.198Z,0.00
2018-07-07T23:45:43.184Z,0.00
2018-07-07T23:46:43.183Z,0.00
2018-07-07T23:47:43.184Z,0.00
2018-07-07T23:48:43.184Z,0.00
2018-07-07T23:49:43.199Z,0.00
2018-07-07T23:50:43.184Z,0.00
2018-07-07T23:51:43.184Z,0.00
2018-07-07T23:52:43.185Z,0.00
2018-07-07T23:53:43.185Z,0.00
2018-07-07T23:54:43.200Z,0.00
2018-07-07T23:55:43.185Z,0.00
2018-07-07T23:56:43.185Z,0.00
2018-07-07T23:57:43.185Z,0.00
2018-07-07T23:58:43.186Z,0.00
2018-07-07T23:59:43.185Z,0.00
